Magnolia, Arkansas
Current Conditions -  °F | °C
As of 6:53 PM on Friday 28 Nov 2014 (Local Time) from KELD Reporting Station
Clear Clear  
Wind Chill: 51°   Ceiling: Unl
Heat Index: 51°   Visibility: 10mi
Dew Point: 37°   Wind: 8mph
Humidity: 59%   Direction: 160°SSE
Pressure: 30.13"   Gusts: NA
Location:  33.27°N, 93.24°W
Report Text: KELD 290053Z AUTO 16007KT 10SM CLR 11/03 A3013 RMK AO2 SLP204 T01060028
Loading
Personal Weather Stations






























Interactive Weather Map New forecast layout! Learn more

10-Day Weather Forecast

Advertisements
Track Severe Weather on mobile